Time;durP1;ratioP1;P1;durP2;ratioP2;P2;SDS_P1;SDS_P2;PMS_P1;PMS_P2;Temp;Humidity;BMP_temperature;BMP_pressure;BME280_temperature;BME280_humidity;BME280_pressure;Samples;Min_cycle;Max_cycle;Signal;HPM_P1;HPM_P2
2023/01/15 00:04:53;;;;;;;1999.90;999.90;;;;;;;7.27;100.00;99747.38;10529152;28;20052;-66
2023/01/15 00:09:56;;;;;;;1999.90;999.90;;;;;;;7.41;100.00;99729.97;10544372;28;20052;-66
2023/01/15 00:14:58;;;;;;;1999.90;999.90;;;;;;;7.20;100.00;99744.28;10546763;28;20048;-66
2023/01/15 00:20:03;;;;;;;1999.90;999.90;;;;;;;7.40;100.00;99746.53;10546109;28;20059;-66
2023/01/15 00:30:27;;;;;;;1999.90;999.90;;;;;;;7.49;100.00;99750.31;10545773;28;20040;-66
2023/01/15 00:35:30;;;;;;;1999.90;999.90;;;;;;;7.36;100.00;99746.78;10545994;28;20048;-67
2023/01/15 00:40:32;;;;;;;1999.90;999.90;;;;;;;7.08;100.00;99725.03;10525641;28;20505;-68
2023/01/15 00:45:35;;;;;;;1999.90;999.90;;;;;;;7.05;100.00;99735.63;10545635;28;20055;-68
2023/01/15 00:50:37;;;;;;;1999.90;999.90;;;;;;;7.19;100.00;99732.19;10525816;28;20106;-66
2023/01/15 00:55:39;;;;;;;1999.90;999.90;;;;;;;7.07;100.00;99746.78;10543742;28;20048;-66
2023/01/15 01:00:41;;;;;;;1999.90;999.90;;;;;;;6.92;100.00;99766.75;10543598;28;20047;-67
2023/01/15 01:05:44;;;;;;;1999.90;999.90;;;;;;;7.03;100.00;99773.94;10544851;28;20066;-69
2023/01/15 01:10:46;;;;;;;1999.90;999.90;;;;;;;7.07;100.00;99765.84;10542556;28;20051;-68
2023/01/15 01:15:48;;;;;;;1999.90;999.90;;;;;;;6.96;100.00;99768.25;10526468;28;20101;-67
2023/01/15 01:20:51;;;;;;;1999.90;999.90;;;;;;;7.00;100.00;99767.13;10542492;28;20088;-66
2023/01/15 01:25:53;;;;;;;1999.90;999.90;;;;;;;6.88;100.00;99760.06;10542366;28;20093;-67
2023/01/15 01:30:56;;;;;;;1999.90;999.90;;;;;;;6.83;100.00;99770.72;10541278;28;20072;-66
2023/01/15 01:35:58;;;;;;;1999.90;999.90;;;;;;;6.78;100.00;99775.34;10543636;28;20052;-67
2023/01/15 01:41:00;;;;;;;1999.90;999.90;;;;;;;6.84;98.09;99768.94;10523586;28;20445;-68
2023/01/15 01:46:03;;;;;;;1999.90;999.90;;;;;;;6.72;98.67;99754.88;10543214;28;20051;-70
2023/01/15 01:51:05;;;;;;;1999.90;999.90;;;;;;;6.75;100.00;99772.94;10524299;28;20044;-70
2023/01/15 01:56:08;;;;;;;1999.90;999.90;;;;;;;6.79;99.41;99769.25;10524931;28;20048;-68
2023/01/15 02:01:11;;;;;;;1999.90;999.90;;;;;;;6.65;96.33;99776.97;10522971;28;20048;-68
2023/01/15 02:06:14;;;;;;;1999.90;999.90;;;;;;;6.76;100.00;99766.81;10540472;28;20124;-67
2023/01/15 02:11:19;;;;;;;1999.90;999.90;;;;;;;6.82;100.00;99771.63;10541415;28;20055;-67
2023/01/15 02:16:29;;;;;;;1999.90;999.90;;;;;;;6.60;100.00;99773.81;10542671;28;20048;-67
2023/01/15 02:21:50;;;;;;;1999.90;999.90;;;;;;;6.79;100.00;99768.38;10541313;28;20086;-67
2023/01/15 02:27:07;;;;;;;1999.90;999.90;;;;;;;6.51;100.00;99775.19;10522824;28;20051;-68
2023/01/15 02:32:31;;;;;;;1999.90;999.90;;;;;;;6.62;100.00;99767.63;10539861;28;20380;-67
2023/01/15 02:37:37;;;;;;;1999.90;999.90;;;;;;;6.54;100.00;99763.75;10539367;28;20448;-67
2023/01/15 02:42:40;;;;;;;1999.90;999.90;;;;;;;6.66;100.00;99753.50;10522344;28;20047;-67
2023/01/15 02:47:44;;;;;;;1999.90;999.90;;;;;;;6.73;100.00;99748.78;10539198;28;20079;-67
2023/01/15 02:52:50;;;;;;;1999.90;999.90;;;;;;;6.60;100.00;99753.84;10506050;28;20048;-67
2023/01/15 02:57:55;;;;;;;1999.90;999.90;;;;;;;6.28;100.00;99753.91;10540618;28;20055;-67
2023/01/15 03:03:02;;;;;;;1999.90;999.90;;;;;;;6.45;100.00;99746.91;10520923;28;20384;-67
2023/01/15 03:08:07;;;;;;;1999.90;999.90;;;;;;;6.33;100.00;99751.06;10536818;28;20044;-67
2023/01/15 03:13:18;;;;;;;1999.90;999.90;;;;;;;6.25;100.00;99740.25;10522743;28;20036;-67
2023/01/15 03:18:22;;;;;;;1999.90;999.90;;;;;;;6.36;100.00;99748.28;10520106;28;20425;-67
2023/01/15 03:23:26;;;;;;;1999.90;999.90;;;;;;;6.32;100.00;99751.97;10539051;28;20074;-67
2023/01/15 03:28:32;;;;;;;1999.90;999.90;;;;;;;6.32;100.00;99742.41;10518086;28;20048;-67
2023/01/15 03:33:34;;;;;;;1999.90;999.90;;;;;;;6.32;100.00;99742.41;10529667;22;20055;-64
2023/01/15 03:38:38;;;;;;;1999.90;999.90;;;;;;;6.29;100.00;99731.38;10520850;28;20044;-64
2023/01/15 03:43:59;;;;;;;1999.90;999.90;;;;;;;6.16;100.00;99740.78;10521603;28;20048;-64
2023/01/15 03:49:06;;;;;;;1999.90;999.90;;;;;;;6.10;100.00;99739.34;10519875;28;20048;-64
2023/01/15 03:54:18;;;;;;;1999.90;999.90;;;;;;;6.10;100.00;99731.53;10538868;28;20494;-64
2023/01/15 03:59:49;;;;;;;1999.90;999.90;;;;;;;6.17;100.00;99740.69;10520301;28;20055;-64
2023/01/15 04:04:53;;;;;;;1999.90;999.90;;;;;;;6.14;100.00;99733.88;10521322;28;20044;-64
2023/01/15 04:09:55;;;;;;;1999.90;999.90;;;;;;;6.12;100.00;99730.53;10520231;28;20094;-64
2023/01/15 04:14:57;;;;;;;1999.90;999.90;;;;;;;6.10;100.00;99737.59;10520951;28;20048;-64
2023/01/15 04:20:00;;;;;;;1999.90;999.90;;;;;;;6.02;100.00;99723.31;10538179;28;20380;-64
2023/01/15 04:25:03;;;;;;;1999.90;999.90;;;;;;;6.01;98.93;99724.28;10519330;28;20048;-64
2023/01/15 04:30:06;;;;;;;1999.90;999.90;;;;;;;5.89;99.58;99733.56;10527158;28;20052;-64
2023/01/15 04:35:08;;;;;;;1999.90;999.90;;;;;;;6.12;99.72;99733.16;10545086;28;20055;-64
2023/01/15 04:44:05;;;;;;;1999.90;999.90;;;;;;;5.90;99.71;99728.28;10544554;28;20048;-64
2023/01/15 04:45:36;;;;;;;1999.90;999.90;;;;;;;5.94;100.00;99729.75;10530075;28;20048;-64
2023/01/15 04:50:39;;;;;;;1999.90;999.90;;;;;;;5.92;100.00;99723.81;10544525;28;20048;-64
2023/01/15 04:55:42;;;;;;;1999.90;999.90;;;;;;;5.90;100.00;99732.59;10545286;28;20047;-64
2023/01/15 05:00:44;;;;;;;1999.90;999.90;;;;;;;5.89;100.00;99746.53;10544394;28;20482;-64
2023/01/15 05:05:46;;;;;;;1999.90;999.90;;;;;;;5.91;100.00;99750.72;10525392;28;20052;-64
2023/01/15 05:10:49;;;;;;;1999.90;999.90;;;;;;;5.66;100.00;99745.19;10543770;28;20044;-64
2023/01/15 05:15:51;;;;;;;1999.90;999.90;;;;;;;5.66;100.00;99743.41;10542857;28;20437;-64
2023/01/15 05:20:53;;;;;;;1999.90;999.90;;;;;;;5.76;100.00;99736.78;10544225;28;20048;-64
2023/01/15 05:25:55;;;;;;;1999.90;999.90;;;;;;;5.84;100.00;99727.78;10542268;28;20379;-64
2023/01/15 05:30:58;;;;;;;1999.90;999.90;;;;;;;5.87;100.00;99733.63;10542113;28;20445;-64
2023/01/15 05:36:04;;;;;;;1999.90;999.90;;;;;;;5.71;98.98;99743.16;10541996;28;20056;-64
2023/01/15 05:46:31;;;;;;;1999.90;999.90;;;;;;;5.68;97.65;99723.41;10526936;28;20047;-64
2023/01/15 05:51:35;;;;;;;1999.90;999.90;;;;;;;5.67;100.00;99715.72;10524217;28;20140;-64
2023/01/15 05:56:38;;;;;;;1999.90;999.90;;;;;;;5.64;99.93;99719.28;10541854;28;20052;-64
2023/01/15 06:01:40;;;;;;;1999.90;999.90;;;;;;;5.59;100.00;99723.91;10524664;28;20093;-64
2023/01/15 06:06:43;;;;;;;1999.90;999.90;;;;;;;5.71;99.06;99725.00;10523079;28;20483;-64
2023/01/15 06:11:46;;;;;;;1999.90;999.90;;;;;;;5.62;99.32;99728.94;10540015;28;20051;-64
2023/01/15 06:16:48;;;;;;;1999.90;999.90;;;;;;;5.71;97.52;99719.78;10541468;28;20483;-64
2023/01/15 06:21:51;;;;;;;1999.90;999.90;;;;;;;5.68;96.53;99730.34;10541164;28;20164;-66
2023/01/15 06:26:53;;;;;;;1999.90;999.90;;;;;;;5.64;97.22;99734.03;10540190;28;20561;-66
2023/01/15 06:31:55;;;;;;;1999.90;999.90;;;;;;;5.53;96.38;99748.44;10538845;28;20376;-67
2023/01/15 06:37:00;;;;;;;1999.90;999.90;;;;;;;5.69;96.12;99745.03;10540575;28;20419;-67
2023/01/15 06:47:24;;;;;;;1999.90;999.90;;;;;;;5.64;97.13;99757.41;10539190;28;20428;-64
2023/01/15 06:52:27;;;;;;;1999.90;999.90;;;;;;;5.73;97.66;99752.56;10539440;28;20093;-64
2023/01/15 06:57:30;;;;;;;1999.90;999.90;;;;;;;5.54;97.94;99755.28;10521717;28;20055;-64
2023/01/15 07:02:32;;;;;;;1999.90;999.90;;;;;;;5.50;96.37;99747.78;10540401;28;20089;-64
2023/01/15 07:07:35;;;;;;;1999.90;999.90;;;;;;;5.47;100.00;99753.13;10520799;28;20498;-64
2023/01/15 07:12:37;;;;;;;1999.90;999.90;;;;;;;5.36;99.42;99751.94;10538699;28;20044;-64
2023/01/15 07:17:39;;;;;;;1999.90;999.90;;;;;;;5.31;99.13;99766.91;10539179;28;20098;-64
2023/01/15 07:22:42;;;;;;;1999.90;999.90;;;;;;;5.31;100.00;99764.31;10522120;28;20074;-64
2023/01/15 07:27:47;;;;;;;1999.90;999.90;;;;;;;5.37;98.63;99758.78;10516878;28;20052;-63
2023/01/15 07:32:49;;;;;;;1999.90;999.90;;;;;;;5.33;99.78;99767.66;10539233;28;20044;-64
2023/01/15 07:37:52;;;;;;;1999.90;999.90;;;;;;;5.56;100.00;99760.41;10520625;28;20063;-64
2023/01/15 07:53:36;;;;;;;1999.90;999.90;;;;;;;5.30;99.86;99770.41;10532114;28;20052;-64
2023/01/15 07:58:38;;;;;;;1999.90;999.90;;;;;;;5.28;99.91;99782.63;10514514;28;20431;-64
2023/01/15 08:03:41;;;;;;;1999.90;999.90;;;;;;;5.19;100.00;99770.13;10538869;28;20044;-64
2023/01/15 08:08:43;;;;;;;1999.90;999.90;;;;;;;5.27;100.00;99788.72;10533194;28;20048;-64
2023/01/15 08:19:07;;;;;;;1999.90;999.90;;;;;;;5.20;99.07;99798.59;10504044;28;20400;-64
2023/01/15 08:24:09;;;;;;;1999.90;999.90;;;;;;;5.15;97.86;99790.19;10526144;28;20441;-64
2023/01/15 08:29:11;;;;;;;1999.90;999.90;;;;;;;5.08;99.45;99778.47;10576375;28;20077;-63
2023/01/15 08:34:14;;;;;;;1999.90;999.90;;;;;;;5.16;98.53;99783.25;10544132;28;20450;-64
2023/01/15 08:39:16;;;;;;;1999.90;999.90;;;;;;;5.24;94.94;99775.91;10511173;28;20380;-64
2023/01/15 08:44:20;;;;;;;1999.90;999.90;;;;;;;5.33;96.99;99765.06;10543243;28;20544;-64
2023/01/15 08:49:22;;;;;;;1999.90;999.90;;;;;;;5.21;97.02;99776.06;10541274;28;20047;-63
2023/01/15 08:54:25;;;;;;;1999.90;999.90;;;;;;;5.39;96.43;99787.25;10541762;28;20055;-64
2023/01/15 08:59:27;;;;;;;1999.90;999.90;;;;;;;5.38;94.28;99783.00;10523082;28;20048;-64
2023/01/15 09:04:29;;;;;;;1999.90;999.90;;;;;;;5.40;93.91;99775.97;10541186;28;20054;-63
2023/01/15 09:09:33;;;;;;;1999.90;999.90;;;;;;;5.54;95.34;99788.22;10523485;28;20406;-64
2023/01/15 09:14:36;;;;;;;1999.90;999.90;;;;;;;5.72;95.68;99763.88;10541662;28;20479;-64
2023/01/15 09:19:59;;;;;;;1999.90;999.90;;;;;;;5.52;93.45;99779.69;10541019;28;20218;-63
2023/01/15 09:25:01;;;;;;;1999.90;999.90;;;;;;;7.53;85.29;99788.28;10522898;28;20052;-64
2023/01/15 09:30:04;;;;;;;1999.90;999.90;;;;;;;9.91;76.40;99770.97;10540677;28;20051;-64
2023/01/15 09:35:07;;;;;;;1999.90;999.90;;;;;;;10.76;72.38;99773.56;10541065;28;20059;-65
2023/01/15 09:40:39;;;;;;;1999.90;999.90;;;;;;;10.20;70.79;99770.69;10540799;28;20048;-64
2023/01/15 09:45:50;;;;;;;1999.90;999.90;;;;;;;10.53;69.95;99770.03;10540397;28;20044;-64
2023/01/15 09:50:58;;;;;;;1999.90;999.90;;;;;;;10.27;71.13;99761.47;10522210;28;20044;-64
2023/01/15 09:56:02;;;;;;;1999.90;999.90;;;;;;;11.05;70.96;99751.38;10519984;28;20056;-64
2023/01/15 10:01:05;;;;;;;1999.90;999.90;;;;;;;8.14;76.00;99775.81;10522717;28;20059;-64
2023/01/15 10:06:23;;;;;;;1999.90;999.90;;;;;;;9.28;75.85;99776.19;10540523;28;20173;-63
2023/01/15 10:16:57;;;;;;;1999.90;999.90;;;;;;;7.38;79.92;99794.41;10513677;28;20453;-63
2023/01/15 10:22:08;;;;;;;1999.90;999.90;;;;;;;7.45;79.64;99790.53;10538371;28;20051;-63
2023/01/15 10:27:21;;;;;;;1999.90;999.90;;;;;;;6.69;81.49;99787.13;10525562;28;20089;-63
2023/01/15 10:32:49;;;;;;;1999.90;999.90;;;;;;;7.24;82.82;99782.22;10514542;28;20101;-64
2023/01/15 10:38:29;;;;;;;1999.90;999.90;;;;;;;7.02;82.15;99803.47;10521958;28;20560;-64
2023/01/15 10:43:49;;;;;;;1999.90;999.90;;;;;;;6.77;81.15;99783.25;10536847;28;20486;-64
2023/01/15 10:48:55;;;;;;;1999.90;999.90;;;;;;;7.25;82.25;99781.31;10522541;28;20446;-64
2023/01/15 10:54:06;;;;;;;1999.90;999.90;;;;;;;7.33;79.32;99805.13;10540205;28;20044;-64
2023/01/15 10:59:21;;;;;;;1999.90;999.90;;;;;;;6.94;80.89;99806.50;10540670;28;20093;-64
2023/01/15 11:04:26;;;;;;;1999.90;999.90;;;;;;;6.78;82.03;99790.97;10506297;28;20059;-64
2023/01/15 11:09:33;;;;;;;1999.90;999.90;;;;;;;6.93;81.59;99822.25;10539842;28;20441;-63
2023/01/15 11:19:59;;;;;;;1999.90;999.90;;;;;;;6.94;82.73;99780.50;10539478;28;20090;-64
2023/01/15 11:25:02;;;;;;;1999.90;999.90;;;;;;;6.94;84.16;99788.28;10522135;28;20093;-65
2023/01/15 11:30:07;;;;;;;1999.90;999.90;;;;;;;6.76;84.66;99807.56;10540042;28;20135;-64
2023/01/15 11:35:19;;;;;;;1999.90;999.90;;;;;;;6.96;82.97;99804.69;10507217;28;20067;-64
2023/01/15 11:40:23;;;;;;;1999.90;999.90;;;;;;;7.10;82.35;99811.69;10547730;28;20044;-64
2023/01/15 11:50:59;;;;;;;1999.90;999.90;;;;;;;7.19;81.25;99782.47;10532264;28;20052;-65
2023/01/15 11:56:05;;;;;;;1999.90;999.90;;;;;;;7.15;81.14;99807.03;10529942;28;20056;-65
2023/01/15 12:01:08;;;;;;;1999.90;999.90;;;;;;;7.10;83.83;99785.66;10547617;28;20048;-64
2023/01/15 12:06:12;;;;;;;1999.90;999.90;;;;;;;7.24;82.51;99797.84;10529471;28;20105;-64
2023/01/15 12:11:30;;;;;;;1999.90;999.90;;;;;;;7.11;81.93;99802.94;10528741;28;20433;-64
2023/01/15 12:16:36;;;;;;;1999.90;999.90;;;;;;;7.11;82.92;99802.94;10529066;28;20044;-64
2023/01/15 12:22:00;;;;;;;1999.90;999.90;;;;;;;7.36;81.43;99786.72;10528215;28;20453;-64
2023/01/15 12:27:21;;;;;;;1999.90;999.90;;;;;;;7.22;83.10;99790.13;10546223;28;20052;-64
2023/01/15 12:32:30;;;;;;;1999.90;999.90;;;;;;;7.24;83.98;99780.44;10545749;28;20426;-64
2023/01/15 12:37:39;;;;;;;1999.90;999.90;;;;;;;7.10;84.47;99792.63;10527497;28;20156;-64
2023/01/15 12:48:22;;;;;;;1999.90;999.90;;;;;;;7.14;87.35;99763.69;10544391;28;20458;-64
2023/01/15 12:53:29;;;;;;;1999.90;999.90;;;;;;;7.15;86.74;99781.00;10527794;28;20116;-64
2023/01/15 12:58:43;;;;;;;1999.90;999.90;;;;;;;6.86;87.28;99788.75;10545497;28;20101;-64
2023/01/15 13:03:59;;;;;;;1999.90;999.90;;;;;;;6.66;88.39;99776.91;10527191;28;20059;-64
2023/01/15 13:09:11;;;;;;;1999.90;999.90;;;;;;;6.59;88.60;99788.59;10545038;28;20048;-65
2023/01/15 13:14:18;;;;;;;1999.90;999.90;;;;;;;7.02;87.04;99765.25;10544716;28;20051;-65
2023/01/15 13:19:45;;;;;;;1999.90;999.90;;;;;;;6.87;86.57;99785.22;10526038;28;20483;-64
2023/01/15 13:25:25;;;;;;;1999.90;999.90;;;;;;;6.98;86.92;99769.00;10544320;28;20048;-65
2023/01/15 13:30:51;;;;;;;;;;;;;;;6.92;85.38;99782.34;10543949;28;20403;-65
2023/01/15 13:36:20;;;;;;;1999.90;999.90;;;;;;;6.85;86.25;99775.84;10543338;28;19920;-64
2023/01/15 13:47:03;;;;;;;1999.90;999.90;;;;;;;6.67;88.55;99815.00;10498224;28;20105;-65
2023/01/15 13:52:16;;;;;;;1999.90;999.90;;;;;;;6.23;100.00;99810.50;10543229;28;20055;-66
2023/01/15 13:57:24;;;;;;;1999.90;999.90;;;;;;;6.17;100.00;99828.19;10524702;28;20051;-65
2023/01/15 14:02:33;;;;;;;1999.90;999.90;;;;;;;5.97;100.00;99821.47;10542121;28;20048;-65
2023/01/15 14:07:36;;;;;;;1999.90;999.90;;;;;;;6.04;100.00;99823.69;10524270;28;20062;-65
2023/01/15 14:13:00;;;;;;;1999.90;999.90;;;;;;;6.14;100.00;99821.44;10524423;28;20048;-65
2023/01/15 14:18:09;;;;;;;1999.90;999.90;;;;;;;6.05;100.00;99830.56;10542173;28;20048;-65
2023/01/15 14:23:23;;;;;;;1999.90;999.90;;;;;;;6.22;100.00;99824.44;10524163;28;20052;-65
2023/01/15 14:28:53;;;;;;;1999.90;999.90;;;;;;;6.18;100.00;99837.69;10541842;28;20097;-65
2023/01/15 14:34:16;;;;;;;1999.90;999.90;;;;;;;5.87;100.00;99842.75;10523287;28;20052;-66
2023/01/15 14:39:48;;;;;;;1999.90;999.90;;;;;;;6.02;100.00;99835.06;10541449;28;20052;-65
2023/01/15 14:45:11;;;;;;;1999.90;999.90;;;;;;;5.89;100.00;99853.06;10533658;28;20048;-65
2023/01/15 14:50:38;;;;;;;1999.90;999.90;;;;;;;5.99;100.00;99861.25;10541258;28;20056;-65
2023/01/15 14:55:48;;;;;;;1999.90;999.90;;;;;;;5.92;100.00;99853.72;10522284;28;20380;-65
2023/01/15 15:00:52;;;;;;;1999.90;999.90;;;;;;;6.01;100.00;99851.59;10522758;28;20048;-65
2023/01/15 15:05:57;;;;;;;1999.90;999.90;;;;;;;6.04;100.00;99851.44;10523012;28;20048;-65
2023/01/15 15:11:00;;;;;;;1999.90;999.90;;;;;;;5.94;100.00;99858.84;10522164;28;20044;-64
2023/01/15 15:16:26;;;;;;;1999.90;999.90;;;;;;;5.94;100.00;99861.44;10540265;28;20044;-65
2023/01/15 15:21:38;;;;;;;1999.90;999.90;;;;;;;6.02;100.00;99850.66;10522222;28;20093;-64
2023/01/15 15:26:42;;;;;;;1999.90;999.90;;;;;;;5.97;100.00;99845.72;10522287;28;20052;-65
2023/01/15 15:31:54;;;;;;;1999.90;999.90;;;;;;;6.10;100.00;99851.94;10539286;28;20048;-65
2023/01/15 15:37:03;;;;;;;1999.90;999.90;;;;;;;6.04;100.00;99839.28;10520263;28;20135;-65
2023/01/15 15:53:16;;;;;;;1999.90;999.90;;;;;;;6.18;98.96;99856.72;10482100;28;20066;-64
2023/01/15 15:58:35;;;;;;;1999.90;999.90;;;;;;;6.13;99.32;99861.31;10480025;28;20105;-64
2023/01/15 16:03:46;;;;;;;1999.90;999.90;;;;;;;6.05;98.45;99879.94;10479072;28;20407;-64
2023/01/15 16:08:55;;;;;;;1999.90;999.90;;;;;;;6.19;99.18;99868.78;10479927;28;20056;-64
2023/01/15 16:13:59;;;;;;;1999.90;999.90;;;;;;;6.12;98.77;99868.28;10479693;28;20058;-65
2023/01/15 16:19:02;;;;;;;1999.90;999.90;;;;;;;6.14;97.24;99886.41;10479529;28;20052;-64
2023/01/15 16:24:21;;;;;;;1999.90;999.90;;;;;;;6.00;97.26;99871.56;10462984;28;20051;-64
2023/01/15 16:29:29;;;;;;;1999.90;999.90;;;;;;;5.98;97.92;99875.97;10483244;28;20052;-65
2023/01/15 16:34:33;;;;;;;1999.90;999.90;;;;;;;5.87;98.03;99879.09;10485919;28;20045;-64
2023/01/15 16:39:39;;;;;;;1999.90;999.90;;;;;;;5.84;98.69;99884.47;10485877;28;20048;-64
2023/01/15 16:44:53;;;;;;;1999.90;999.90;;;;;;;5.75;100.00;99888.38;10485917;28;20056;-64
2023/01/15 16:50:21;;;;;;;1999.90;999.90;;;;;;;5.74;100.00;99891.06;10487555;28;20107;-65
2023/01/15 16:55:43;;;;;;;1999.90;999.90;;;;;;;5.75;100.00;99900.53;10485787;28;20052;-65
2023/01/15 17:00:52;;;;;;;1999.90;999.90;;;;;;;5.55;100.00;99896.38;10485740;28;20049;-65
2023/01/15 17:05:58;;;;;;;1999.90;999.90;;;;;;;5.61;100.00;99884.81;10484344;28;20048;-65
2023/01/15 17:11:02;;;;;;;1999.90;999.90;;;;;;;5.40;100.00;99904.00;10483772;28;20098;-65
2023/01/15 17:16:25;;;;;;;1999.90;999.90;;;;;;;5.54;100.00;99905.06;10484520;28;20506;-65
2023/01/15 17:21:28;;;;;;;1999.90;999.90;;;;;;;5.51;100.00;99918.19;10502633;28;20052;-65
2023/01/15 17:26:31;;;;;;;1999.90;999.90;;;;;;;5.45;100.00;99926.31;10501003;28;20078;-65
2023/01/15 17:31:35;;;;;;;1999.90;999.90;;;;;;;5.37;100.00;99905.91;10482819;28;20438;-65
2023/01/15 17:36:37;;;;;;;1999.90;999.90;;;;;;;5.45;100.00;99905.53;10501180;28;20052;-65
2023/01/15 17:41:39;;;;;;;1999.90;999.90;;;;;;;5.41;100.00;99912.63;10501786;28;20127;-65
2023/01/15 17:46:42;;;;;;;1999.90;999.90;;;;;;;5.44;100.00;99935.84;10499596;28;20052;-65
2023/01/15 17:51:44;;;;;;;1999.90;999.90;;;;;;;5.34;100.00;99930.25;10500463;28;20048;-65
2023/01/15 18:07:39;;;;;;;1999.90;999.90;;;;;;;5.41;100.00;99948.97;10481926;28;20151;-65
2023/01/15 18:12:42;;;;;;;1999.90;999.90;;;;;;;5.34;100.00;99942.41;10483001;28;20048;-65
2023/01/15 18:17:44;;;;;;;1999.90;999.90;;;;;;;5.39;100.00;99954.22;10499752;28;20066;-65
2023/01/15 18:22:47;;;;;;;1999.90;999.90;;;;;;;5.33;100.00;99951.09;10481771;28;20048;-65
2023/01/15 18:27:50;;;;;;;1999.90;999.90;;;;;;;5.21;100.00;99947.34;10482231;28;20048;-66
2023/01/15 18:32:52;;;;;;;1999.90;999.90;;;;;;;5.17;100.00;99940.63;10498003;28;20044;-65
2023/01/15 18:37:55;;;;;;;1999.90;999.90;;;;;;;5.16;100.00;99936.34;10499590;28;20052;-66
2023/01/15 18:48:18;;;;;;;1999.90;999.90;;;;;;;5.02;100.00;99942.22;10479683;28;20071;-65
2023/01/15 18:53:21;;;;;;;1999.90;999.90;;;;;;;4.81;100.00;99946.69;10497301;28;20048;-65
2023/01/15 18:58:23;;;;;;;1999.90;999.90;;;;;;;4.74;100.00;99950.44;10497329;28;20052;-65
2023/01/15 19:03:27;;;;;;;1999.90;999.90;;;;;;;4.90;100.00;99937.63;10481002;28;20051;-65
2023/01/15 19:08:29;;;;;;;1999.90;999.90;;;;;;;4.81;100.00;99925.94;10480261;28;20102;-65
2023/01/15 19:13:31;;;;;;;1999.90;999.90;;;;;;;4.74;100.00;99943.53;10496539;28;20052;-65
2023/01/15 19:18:51;;;;;;;1999.90;999.90;;;;;;;4.84;100.00;99933.53;10496407;28;20048;-65
2023/01/15 19:23:53;;;;;;;1999.90;999.90;;;;;;;4.85;100.00;99930.03;10494466;28;20057;-65
2023/01/15 19:28:56;;;;;;;1999.90;999.90;;;;;;;4.82;100.00;99928.47;10495371;28;20078;-65
2023/01/15 19:33:59;;;;;;;1999.90;999.90;;;;;;;4.86;100.00;99920.50;10495406;28;20482;-65
2023/01/15 19:39:22;;;;;;;1999.90;999.90;;;;;;;4.92;100.00;99922.81;10496213;28;20115;-65
2023/01/15 19:55:09;;;;;;;1999.90;999.90;;;;;;;4.72;100.00;99906.44;10482348;28;20056;-65
2023/01/15 20:00:17;;;;;;;1999.90;999.90;;;;;;;4.99;100.00;99896.50;10505183;28;20105;-65
2023/01/15 20:05:20;;;;;;;1999.90;999.90;;;;;;;4.84;100.00;99889.44;10481902;28;20048;-65
2023/01/15 20:10:25;;;;;;;1999.90;999.90;;;;;;;4.86;100.00;99882.47;10487154;28;20056;-65
2023/01/15 20:15:28;;;;;;;1999.90;999.90;;;;;;;5.29;100.00;99880.31;10503574;28;20044;-65
2023/01/15 20:20:31;;;;;;;1999.90;999.90;;;;;;;5.11;100.00;99871.72;10499298;28;20052;-65
2023/01/15 20:25:34;;;;;;;1999.90;999.90;;;;;;;5.01;100.00;99866.13;10484524;28;20056;-66
2023/01/15 20:30:39;;;;;;;1999.90;999.90;;;;;;;4.99;100.00;99848.97;10502953;28;20052;-66
2023/01/15 20:35:41;;;;;;;1999.90;999.90;;;;;;;5.04;100.00;99846.97;10486241;28;20041;-66
2023/01/15 20:40:44;;;;;;;1999.90;999.90;;;;;;;4.88;100.00;99841.72;10503595;28;20488;-66
2023/01/15 20:45:46;;;;;;;1999.90;999.90;;;;;;;5.01;100.00;99835.00;10502027;28;20561;-65
2023/01/15 20:51:00;;;;;;;1999.90;999.90;;;;;;;5.13;100.00;99828.38;10503515;28;20056;-65
2023/01/15 20:56:09;;;;;;;1999.90;999.90;;;;;;;5.23;100.00;99815.78;10502378;28;20049;-65
2023/01/15 21:01:12;;;;;;;1999.90;999.90;;;;;;;4.91;100.00;99815.63;10501802;28;20098;-65
2023/01/15 21:06:14;;;;;;;1999.90;999.90;;;;;;;4.78;100.00;99806.78;10500234;28;20084;-65
2023/01/15 21:11:17;;;;;;;1999.90;999.90;;;;;;;4.76;100.00;99799.06;10500754;28;20052;-65
2023/01/15 21:16:19;;;;;;;1999.90;999.90;;;;;;;4.61;100.00;99790.28;10496228;28;20608;-65
2023/01/15 21:21:22;;;;;;;1999.90;999.90;;;;;;;4.61;100.00;99777.31;10508867;28;20056;-65
2023/01/15 21:26:24;;;;;;;1999.90;999.90;;;;;;;4.58;100.00;99776.63;10502449;28;20075;-65
2023/01/15 21:31:27;;;;;;;1999.90;999.90;;;;;;;4.51;100.00;99765.72;10502240;28;20045;-65
2023/01/15 21:36:29;;;;;;;1999.90;999.90;;;;;;;4.61;100.00;99753.97;10500463;28;20491;-65
2023/01/15 21:46:52;;;;;;;1999.90;999.90;;;;;;;4.58;100.00;99740.34;10499260;28;20059;-65
2023/01/15 21:51:54;;;;;;;1999.90;999.90;;;;;;;4.60;100.00;99735.91;10500520;28;20055;-65
2023/01/15 21:56:57;;;;;;;1999.90;999.90;;;;;;;4.82;100.00;99731.34;10501283;28;20052;-65
2023/01/15 22:02:00;;;;;;;1999.90;999.90;;;;;;;4.54;100.00;99716.31;10499502;28;20040;-65
2023/01/15 22:07:03;;;;;;;1999.90;999.90;;;;;;;4.34;100.00;99708.66;10499135;28;20510;-65
2023/01/15 22:12:05;;;;;;;1999.90;999.90;;;;;;;4.53;100.00;99698.25;10500011;28;20377;-65
2023/01/15 22:17:11;;;;;;;1999.90;999.90;;;;;;;4.58;100.00;99691.91;10499785;28;20061;-65
2023/01/15 22:22:13;;;;;;;1999.90;999.90;;;;;;;4.56;100.00;99672.19;10497340;28;20458;-65
2023/01/15 22:27:15;;;;;;;1999.90;999.90;;;;;;;4.72;100.00;99669.63;10480492;28;20053;-65
2023/01/15 22:32:18;;;;;;;1999.90;999.90;;;;;;;4.74;100.00;99662.59;10499186;28;20454;-65
2023/01/15 22:37:20;;;;;;;1999.90;999.90;;;;;;;4.64;100.00;99642.34;10499080;28;20388;-65
2023/01/15 22:42:30;;;;;;;1999.90;999.90;;;;;;;4.70;100.00;99630.81;10497781;28;20094;-65
2023/01/15 22:47:32;;;;;;;1999.90;999.90;;;;;;;4.89;100.00;99629.88;10498578;28;20045;-65
2023/01/15 22:52:37;;;;;;;1999.90;999.90;;;;;;;4.93;100.00;99623.63;10498350;28;20048;-65
2023/01/15 22:57:40;;;;;;;1999.90;999.90;;;;;;;5.10;100.00;99612.34;10498071;28;20060;-65
2023/01/15 23:02:54;;;;;;;1999.90;999.90;;;;;;;5.14;100.00;99590.47;10498150;28;20475;-65
2023/01/15 23:07:56;;;;;;;1999.90;999.90;;;;;;;5.15;100.00;99590.41;10480878;28;20054;-65
2023/01/15 23:12:59;;;;;;;1999.90;999.90;;;;;;;5.29;100.00;99581.03;10497143;28;20052;-65
2023/01/15 23:18:01;;;;;;;1999.90;999.90;;;;;;;5.00;100.00;99571.31;10498530;28;20052;-65
2023/01/15 23:23:04;;;;;;;1999.90;999.90;;;;;;;5.07;100.00;99566.63;10495220;28;20048;-65
2023/01/15 23:28:06;;;;;;;1999.90;999.90;;;;;;;4.93;100.00;99564.78;10477994;28;20496;-65
2023/01/15 23:33:08;;;;;;;1999.90;999.90;;;;;;;4.90;100.00;99553.75;10497990;28;20079;-65
2023/01/15 23:38:11;;;;;;;1999.90;999.90;;;;;;;5.23;100.00;99558.84;10497454;28;20484;-65
2023/01/15 23:48:36;;;;;;;;;;;;;;;5.24;100.00;99536.31;10480413;28;20105;-65
2023/01/15 23:53:38;;;;;;;1999.90;999.90;;;;;;;5.00;100.00;99536.75;10495147;28;19924;-65
2023/01/15 23:58:41;;;;;;;1999.90;999.90;;;;;;;4.68;100.00;99541.91;10497001;28;20392;-65
